Terminal Aerodrome Forecast
Issued by NWS

Home | Current Version | Previous Version | Text Only | Print | Product List | Glossary On
Versions: 1 2 3 4 5 6 7 8 9 10 11 12 13 14 15 16 17 18 19 20 21 22 23 24 25 26 27 28 29 30 31 32 33 34 35 36
000
FTUS43 KDLH 151733
TAFHIB
TAF
KHIB 151733Z 1518/1618 31004KT P6SM BKN016
     FM152300 VRB02KT P6SM BKN035
     FM160200 09005KT 5SM BR BKN027
     FM160700 10006KT 2SM -SN OVC013
     FM161500 14007KT 3SM -SN OVC011=

USA.gov is the U.S. government's official web portal to all federal, state and local government web resources and services.